Aérodrome :
LOGIN :

S'inscrire | Disclaimer

   EN    FR    IT 

 










Légende :    VFR   VFR Marginal   IFR   IFR Intensif   IFR Très Intensif
Visi : 
Plafond : 
>= 8 km
>= 3000ft
5 à 8 km
1000 à 3000 ft
1500m à 5 km
500 à 1000 ft
800 à 1500m
200 à 500 ft
< 800m
< 200 ft
Symboles :   Orages  Brouillard  Fortes neiges  Fortes précipitations  Vent > 20 kt
SIGMETs :   Divers  Orages  Givrage  Turbulence  Onde Orograph.  Cendres Volcan.







- Altitude de l'aérodrome : 124 ft
- Code IATA : AVN
- Voir les cartes d'approche


LFMV - Avignon Caumont

DERNIER METAR :
  • 122230Z AUTO 12007KT 9999 OVC052 18/12 Q1024

METARs EXPIRÉS :
  • 122200Z AUTO 13004KT 9999 FEW044 OVC052 17/13 Q1024
  • 122130Z AUTO 12006KT 090V150 9999 SCT046 OVC056 18/12 Q1024
  • 122100Z AUTO 12005KT 080V140 9999 OVC054 17/12 Q1024
  • 122030Z AUTO 13006KT 9999 FEW039 OVC054 17/13 Q1024
  • 122000Z AUTO 15006KT 9999 SCT039 BKN046 OVC054 17/13 Q1024 NOSIG

TAF TAF LFMV
Valide du 12 à 15h jusqu'au 13 à 15h UTC


121400Z 1215/1315 14012KT 9999 BKN030
TEMPO 1215/1221 CAVOK
BECMG 1307/1309 VRB03KT
ATIS : +33 4 90 84 32 84
Pas de NOTAMs connus pour ce terrain.



MET'MAP, la Météo Aéronautique d'un coup d'oeil ! - Copyright ORBIFLY Décembre 2007 - Disclaimer

ORBIFLY MET'MAP TEAM :

Programmation & Développement : Alexandra Zaïnal
Conception & Développement : Baudouin d'Aumeries
Co-Programmation & Développement : Marc-Olivier Méhu
Soutien technique & logistique : Manuel Goepfert

Contact : metmap@orbifly.com




SOURCES & CREDITS :

   NOAA